Time;durP1;ratioP1;P1;durP2;ratioP2;P2;SDS_P1;SDS_P2;PMS_P1;PMS_P2;Temp;Humidity;BMP_temperature;BMP_pressure;BME280_temperature;BME280_humidity;BME280_pressure;Samples;Min_cycle;Max_cycle;Signal;HPM_P1;HPM_P2
2023/10/08 00:00:46;;;;;;;9.00;5.97;;;;;;;18.75;80.75;101512.63;5050554;28;20076;-81
2023/10/08 00:03:17;;;;;;;9.55;5.68;;;;;;;18.80;80.29;101512.91;5060120;28;20064;-81
2023/10/08 00:05:45;;;;;;;11.10;5.22;;;;;;;18.75;80.60;101511.81;5065787;28;20495;-80
2023/10/08 00:08:16;;;;;;;11.55;5.75;;;;;;;18.76;80.95;101522.22;5072444;28;20048;-80
2023/10/08 00:11:05;;;;;;;10.93;6.00;;;;;;;18.54;81.35;101515.22;5066500;28;20052;-80
2023/10/08 00:13:43;;;;;;;11.68;5.63;;;;;;;18.49;81.28;101515.78;5070081;28;20049;-81
2023/10/08 00:16:11;;;;;;;9.35;5.90;;;;;;;18.57;81.35;101530.75;5075891;28;20067;-80
2023/10/08 00:18:40;;;;;;;11.20;5.78;;;;;;;18.53;81.34;101537.44;5070216;28;20044;-80
2023/10/08 00:21:16;;;;;;;9.63;6.35;;;;;;;18.46;81.76;101536.53;5064797;28;20375;-80
2023/10/08 00:23:52;;;;;;;9.88;5.63;;;;;;;18.44;81.82;101531.41;5071746;28;20128;-80
2023/10/08 00:26:27;;;;;;;10.10;5.75;;;;;;;18.40;81.86;101543.41;5062211;28;20420;-80
2023/10/08 00:28:55;;;;;;;9.48;5.47;;;;;;;18.39;81.67;101525.88;5062555;28;20139;-82
2023/10/08 00:31:25;;;;;;;12.35;6.50;;;;;;;18.43;81.50;101544.88;5066023;28;20103;-82
2023/10/08 00:33:52;;;;;;;8.98;5.15;;;;;;;18.39;81.61;101541.78;5078986;28;20071;-83
2023/10/08 00:36:20;;;;;;;11.90;6.20;;;;;;;18.43;81.62;101543.00;5076090;28;20049;-83
2023/10/08 00:38:50;;;;;;;10.70;6.13;;;;;;;18.42;81.77;101545.88;5065057;28;20053;-82
2023/10/08 00:41:21;;;;;;;9.60;5.60;;;;;;;18.37;81.92;101545.59;5068619;28;20098;-81
2023/10/08 00:43:48;;;;;;;11.77;6.05;;;;;;;18.27;82.15;101553.84;5067897;28;20049;-82
2023/10/08 00:46:22;;;;;;;12.63;6.05;;;;;;;18.33;81.88;101546.97;5065317;28;20076;-81
2023/10/08 00:48:53;;;;;;;14.13;5.88;;;;;;;18.35;81.68;101539.66;5064990;28;20044;-81
2023/10/08 00:51:27;;;;;;;12.85;5.90;;;;;;;18.35;81.62;101540.50;5067748;28;20044;-81
2023/10/08 00:53:59;;;;;;;12.38;6.00;;;;;;;18.28;81.99;101541.41;5072596;28;20045;-82
2023/10/08 00:58:54;;;;;;;10.82;6.18;;;;;;;18.11;81.90;101512.47;5060716;28;20052;-80
2023/10/08 01:01:21;;;;;;;14.02;6.10;;;;;;;18.13;81.70;101513.09;5062224;28;20492;-81
2023/10/08 01:03:49;;;;;;;10.05;5.80;;;;;;;18.14;81.81;101521.88;5063442;28;20060;-82
2023/10/08 01:06:29;;;;;;;9.18;5.85;;;;;;;18.18;81.91;101528.44;5059899;28;20056;-81
2023/10/08 01:09:17;;;;;;;9.82;5.90;;;;;;;18.16;81.90;101549.00;5060908;28;20044;-81
2023/10/08 01:11:49;;;;;;;12.30;6.03;;;;;;;18.06;82.24;101549.25;5064121;28;20079;-83
2023/10/08 01:14:16;;;;;;;12.63;6.35;;;;;;;17.98;82.51;101544.06;5064896;28;20098;-81
2023/10/08 01:16:46;;;;;;;8.70;5.78;;;;;;;17.88;82.71;101533.75;5067174;28;20060;-82
2023/10/08 01:19:19;;;;;;;11.50;5.90;;;;;;;17.91;82.72;101535.22;5053238;28;20396;-83
2023/10/08 01:21:45;;;;;;;;;;;;;;;17.85;82.90;101531.47;5052828;28;20488;-83
2023/10/08 01:24:17;;;;;;;9.30;5.70;;;;;;;17.58;83.36;101524.91;5066967;28;19921;-84
2023/10/08 01:26:46;;;;;;;12.45;5.72;;;;;;;17.62;83.90;101532.50;5063953;28;20053;-83
2023/10/08 01:29:20;;;;;;;10.20;6.05;;;;;;;17.59;83.74;101534.50;5064157;28;20455;-83
2023/10/08 01:32:02;;;;;;;8.77;5.50;;;;;;;17.41;84.01;101518.16;5056109;28;20045;-83
2023/10/08 01:34:38;;;;;;;10.93;6.00;;;;;;;17.28;84.57;101517.94;5063514;28;20509;-84
2023/10/08 01:37:16;;;;;;;9.57;5.35;;;;;;;17.26;84.68;101506.69;5053769;28;20076;-81
2023/10/08 01:39:54;;;;;;;11.30;5.75;;;;;;;17.27;84.29;101494.28;5058326;28;20048;-81
2023/10/08 01:42:38;;;;;;;11.85;5.78;;;;;;;17.26;84.26;101504.06;5062675;28;20061;-82
2023/10/08 01:45:09;;;;;;;9.63;6.03;;;;;;;17.36;84.01;101528.44;5054637;28;20061;-84
2023/10/08 01:47:36;;;;;;;11.50;6.82;;;;;;;17.44;83.78;101531.03;5062015;28;20072;-83
2023/10/08 01:50:11;;;;;;;10.88;5.88;;;;;;;17.29;83.83;101527.50;5062628;28;20052;-84
2023/10/08 01:52:40;;;;;;;14.75;5.63;;;;;;;17.25;83.72;101532.31;5062666;28;20072;-82
2023/10/08 01:55:13;;;;;;;10.23;5.60;;;;;;;17.15;84.14;101525.63;5062676;28;20049;-80
2023/10/08 01:57:40;;;;;;;11.98;6.07;;;;;;;17.23;84.42;101562.59;5062774;28;20045;-80
2023/10/08 02:00:09;;;;;;;10.18;6.10;;;;;;;17.08;84.66;101553.78;5061461;28;20045;-82
2023/10/08 02:02:36;;;;;;;10.07;5.85;;;;;;;17.06;84.91;101561.88;5061944;28;20059;-84
2023/10/08 02:05:06;;;;;;;11.95;6.05;;;;;;;17.05;85.34;101556.78;5061037;28;20057;-82
2023/10/08 02:07:33;;;;;;;9.63;6.00;;;;;;;16.85;85.60;101546.66;5061541;28;20506;-83
2023/10/08 02:10:01;;;;;;;10.75;5.93;;;;;;;16.84;86.12;101545.03;5052637;28;20060;-81
2023/10/08 02:12:30;;;;;;;9.90;6.20;;;;;;;16.75;86.50;101537.31;5061570;28;20053;-82
2023/10/08 02:15:02;;;;;;;13.60;6.82;;;;;;;16.73;86.55;101529.56;5060630;28;20395;-83
2023/10/08 02:17:29;;;;;;;7.32;5.38;;;;;;;16.71;86.46;101533.38;5056582;28;20069;-82
2023/10/08 02:19:56;;;;;;;9.32;5.82;;;;;;;16.60;86.36;101521.34;5050340;28;20103;-82
2023/10/08 02:22:25;;;;;;;12.90;5.32;;;;;;;16.69;85.92;101536.19;5061148;28;20056;-82
2023/10/08 02:24:53;;;;;;;11.95;6.35;;;;;;;16.72;85.51;101527.91;5052270;28;20442;-84
2023/10/08 02:27:19;;;;;;;8.80;5.88;;;;;;;16.77;85.43;101530.84;5061131;28;20049;-81
2023/10/08 02:29:48;;;;;;;12.90;5.90;;;;;;;16.77;85.46;101533.50;5061629;28;20048;-83
2023/10/08 02:32:14;;;;;;;10.90;6.10;;;;;;;16.80;85.47;101541.06;5058937;28;20064;-83
2023/10/08 02:34:41;;;;;;;12.90;6.20;;;;;;;16.64;85.31;101537.66;5055647;28;20096;-82
2023/10/08 02:37:12;;;;;;;8.88;5.50;;;;;;;16.76;85.46;101537.13;5061552;28;20076;-83
2023/10/08 02:39:40;;;;;;;12.82;6.15;;;;;;;16.76;85.51;101545.06;5062315;28;20055;-81
2023/10/08 02:42:10;;;;;;;10.35;5.93;;;;;;;16.75;85.57;101540.78;5061239;28;20056;-82
2023/10/08 02:44:42;;;;;;;10.27;6.05;;;;;;;16.73;85.44;101540.13;5061939;28;20083;-82
2023/10/08 02:47:13;;;;;;;11.18;6.10;;;;;;;16.88;84.96;101538.38;5061864;28;20049;-84
2023/10/08 02:49:41;;;;;;;11.32;5.95;;;;;;;16.90;84.77;101540.88;5054568;28;20072;-82
2023/10/08 02:52:12;;;;;;;9.05;6.00;;;;;;;16.88;84.78;101551.59;5060059;28;20136;-84
2023/10/08 02:54:39;;;;;;;10.82;6.57;;;;;;;16.88;84.41;101527.81;5065451;28;20087;-83
2023/10/08 02:57:10;;;;;;;9.07;5.97;;;;;;;16.90;84.22;101533.75;5061210;28;20067;-84
2023/10/08 02:59:40;;;;;;;11.10;5.70;;;;;;;16.97;84.19;101548.91;5060681;28;20064;-82
2023/10/08 03:02:13;;;;;;;9.80;6.22;;;;;;;16.95;84.03;101524.47;5060630;28;20427;-80
2023/10/08 03:04:42;;;;;;;13.15;6.45;;;;;;;16.96;83.83;101536.69;5060243;28;20052;-80
2023/10/08 03:07:11;;;;;;;8.57;5.70;;;;;;;16.94;83.77;101536.88;5059917;28;20127;-81
2023/10/08 03:09:44;;;;;;;13.43;6.45;;;;;;;16.97;83.50;101538.34;5062207;28;20108;-80
2023/10/08 03:12:11;;;;;;;15.50;5.97;;;;;;;16.91;83.63;101540.69;5060513;28;20103;-81
2023/10/08 03:17:22;;;;;;;11.23;5.60;;;;;;;16.71;83.88;101528.09;5059664;28;20124;-81
2023/10/08 03:19:51;;;;;;;11.75;6.18;;;;;;;16.68;83.82;101537.19;5060279;28;20067;-82
2023/10/08 04:17:22;;;;;;;14.20;6.60;;;;;;;16.26;87.06;101585.06;4864068;29;20290;-77
2023/10/08 04:34:10;;;;;;;8.95;5.95;;;;;;;16.16;87.46;101587.88;4921408;29;20071;-78
2023/10/08 04:37:00;;;;;;;12.55;6.70;;;;;;;16.07;87.41;101588.91;4899260;29;20124;-78
2023/10/08 04:53:09;;;;;;;12.30;5.97;;;;;;;16.08;87.20;101597.63;4917474;29;20063;-78
2023/10/08 04:59:32;;;;;;;13.07;6.38;;;;;;;16.03;88.17;101631.66;5025993;22;20052;-78
2023/10/08 05:08:47;;;;;;;15.02;6.50;;;;;;;15.84;88.99;101604.63;5050010;28;20056;-78
2023/10/08 05:32:17;;;;;;;12.15;6.40;;;;;;;15.65;89.44;101646.34;4935167;29;20081;-78
2023/10/08 05:42:46;;;;;;;11.15;6.60;;;;;;;15.19;91.04;101633.56;4922059;29;20429;-79
2023/10/08 07:37:11;;;;;;;12.27;7.03;;;;;;;16.86;87.38;101663.81;4905700;28;20058;-79
2023/10/08 09:42:26;;;;;;;22.73;9.02;;;;;;;19.37;82.60;101790.66;4829833;29;20503;-83
2023/10/08 09:44:54;;;;;;;19.65;8.68;;;;;;;19.36;82.93;101799.63;4871793;29;20053;-82
2023/10/08 09:47:23;;;;;;;23.00;9.02;;;;;;;19.50;82.49;101797.94;5001535;28;20067;-81
2023/10/08 09:50:07;;;;;;;18.77;8.52;;;;;;;19.41;81.95;101799.03;5043934;28;20443;-82
2023/10/08 09:52:38;;;;;;;16.27;8.48;;;;;;;19.47;82.01;101791.16;5037599;28;20503;-83
2023/10/08 09:55:10;;;;;;;17.50;8.90;;;;;;;19.59;81.87;101796.03;5042019;28;20080;-82
2023/10/08 09:57:38;;;;;;;17.85;8.15;;;;;;;19.53;82.12;101797.59;5042006;28;20049;-83
2023/10/08 10:00:10;;;;;;;24.48;8.32;;;;;;;19.86;82.02;101798.78;5040906;28;20497;-83
2023/10/08 10:02:37;;;;;;;23.40;8.85;;;;;;;19.68;81.68;101797.56;5041543;28;20049;-83
2023/10/08 10:05:06;;;;;;;21.70;9.88;;;;;;;19.50;81.75;101792.63;5040997;28;20045;-83
2023/10/08 10:07:35;;;;;;;24.23;9.88;;;;;;;19.18;82.26;101797.34;5041218;28;20431;-82
2023/10/08 10:10:08;;;;;;;22.95;9.70;;;;;;;19.27;82.83;101806.03;5040177;28;20128;-82
2023/10/08 10:12:40;;;;;;;23.23;10.05;;;;;;;19.52;82.65;101815.34;5038086;28;20045;-83
2023/10/08 10:15:10;;;;;;;19.55;9.23;;;;;;;19.75;82.00;101814.41;5038616;28;20141;-83
2023/10/08 10:17:37;;;;;;;26.40;10.50;;;;;;;19.64;82.58;101817.53;5037841;28;20057;-83
2023/10/08 10:20:10;;;;;;;23.70;9.65;;;;;;;19.63;81.97;101805.28;5039470;28;20140;-82
2023/10/08 10:22:37;;;;;;;24.55;10.25;;;;;;;19.34;82.40;101793.69;5041361;28;20115;-83
2023/10/08 10:25:14;;;;;;;22.15;10.45;;;;;;;19.48;81.91;101787.50;5039005;28;20084;-82
2023/10/08 10:27:43;;;;;;;22.67;10.00;;;;;;;19.53;82.53;101801.06;5028487;28;20133;-81
2023/10/08 10:30:16;;;;;;;25.75;10.02;;;;;;;19.36;82.65;101799.63;5030228;28;20203;-83
2023/10/08 10:32:46;;;;;;;22.55;10.57;;;;;;;19.23;82.97;101794.16;5039311;28;20045;-83
2023/10/08 10:35:18;;;;;;;22.75;11.43;;;;;;;19.21;83.45;101802.28;5039114;28;20041;-81
2023/10/08 10:37:51;;;;;;;20.73;11.15;;;;;;;19.16;83.32;101798.53;5038994;28;20109;-82
2023/10/08 10:40:28;;;;;;;25.25;11.88;;;;;;;19.24;83.38;101806.41;5039418;28;20083;-82
2023/10/08 10:43:00;;;;;;;21.60;9.45;;;;;;;19.43;83.63;101810.31;5039701;28;20088;-82
2023/10/08 10:45:42;;;;;;;26.37;11.13;;;;;;;19.19;83.84;101808.78;5039129;28;20158;-82
2023/10/08 10:48:13;;;;;;;25.35;10.20;;;;;;;19.30;83.49;101805.66;5030507;28;20292;-82
2023/10/08 10:51:08;;;;;;;24.40;12.43;;;;;;;19.54;82.83;101780.66;5145222;22;20072;-82
2023/10/08 10:53:44;;;;;;;22.75;11.02;;;;;;;19.79;82.29;101800.56;5053497;28;20041;-82
2023/10/08 10:56:29;;;;;;;22.83;10.20;;;;;;;19.83;81.76;101774.44;5058806;28;20060;-82
2023/10/08 10:59:15;;;;;;;26.08;11.48;;;;;;;19.98;81.80;101767.22;5059951;28;20132;-82
2023/10/08 11:01:46;;;;;;;20.20;10.38;;;;;;;20.06;81.62;101785.69;5051739;28;20564;-82
2023/10/08 11:04:19;;;;;;;22.33;10.70;;;;;;;20.14;82.13;101792.72;5050953;28;20037;-79
2023/10/08 11:06:56;;;;;;;24.67;10.52;;;;;;;20.36;80.96;101782.88;5054220;28;20056;-80
2023/10/08 11:30:53;;;;;;;;;;;;;;;;;;;;;
2023/10/08 13:43:34;;;;;;;22.88;13.52;;;;;;;20.78;84.92;101694.22;5789917;22;20041;-84
2023/10/08 13:46:22;;;;;;;21.15;12.45;;;;;;;21.03;84.10;101689.19;5055490;28;20511;-83
2023/10/08 13:49:05;;;;;;;23.65;12.75;;;;;;;20.78;84.36;101668.44;5033298;28;20065;-82
2023/10/08 13:51:38;;;;;;;25.85;14.10;;;;;;;20.77;84.23;101666.78;5036419;28;20057;-85
2023/10/08 13:54:09;;;;;;;25.85;13.05;;;;;;;20.99;83.48;101670.13;5033417;28;20053;-85
2023/10/08 13:56:47;;;;;;;22.95;14.25;;;;;;;20.89;83.44;101659.03;5044299;28;20045;-81
2023/10/08 13:59:16;;;;;;;24.15;12.77;;;;;;;21.02;83.25;101663.59;5077234;23;20474;-81
2023/10/08 14:01:46;;;;;;;26.10;13.32;;;;;;;21.15;83.16;101663.66;5078176;28;20053;-81
2023/10/08 14:04:17;;;;;;;30.27;13.45;;;;;;;21.02;83.10;101653.78;5075417;28;20044;-80
2023/10/08 14:06:47;;;;;;;23.85;13.15;;;;;;;20.88;83.58;101649.41;5077042;28;20056;-80
2023/10/08 14:09:20;;;;;;;28.27;13.55;;;;;;;21.07;83.61;101650.53;5074953;28;20066;-81
2023/10/08 14:11:48;;;;;;;24.48;13.18;;;;;;;20.85;84.12;101647.16;5057047;28;20155;-81
2023/10/08 14:14:17;;;;;;;24.20;13.32;;;;;;;21.02;83.27;101637.00;5057852;28;20055;-81
2023/10/08 14:16:46;;;;;;;26.25;13.10;;;;;;;20.65;84.37;101647.09;5056687;28;20059;-81
2023/10/08 14:19:15;;;;;;;24.23;13.05;;;;;;;20.54;84.62;101651.13;5055987;28;20048;-81
2023/10/08 14:21:49;;;;;;;29.40;12.45;;;;;;;20.36;85.79;101647.31;5058235;28;20470;-81
2023/10/08 14:24:16;;;;;;;26.08;13.13;;;;;;;20.31;85.94;101645.25;5066636;28;20107;-81
2023/10/08 14:26:43;;;;;;;20.55;12.70;;;;;;;20.25;86.59;101655.84;5067781;28;20419;-81
2023/10/08 14:29:14;;;;;;;23.83;13.38;;;;;;;20.26;86.58;101652.16;5061150;28;20107;-80
2023/10/08 14:31:48;;;;;;;24.42;13.20;;;;;;;20.10;86.93;101643.47;5067509;28;20444;-81
2023/10/08 14:34:29;;;;;;;23.10;13.38;;;;;;;20.31;86.38;101645.25;5068671;28;20045;-82
2023/10/08 14:45:11;;;;;;;28.08;12.60;;;;;;;20.18;86.85;101626.56;5059410;28;20178;-81
2023/10/08 14:47:39;;;;;;;26.30;13.30;;;;;;;19.98;87.86;101626.41;5060202;28;20084;-81
2023/10/08 14:50:15;;;;;;;26.13;13.68;;;;;;;19.83;88.36;101617.75;5059719;28;20121;-82
2023/10/08 14:52:42;;;;;;;26.60;12.00;;;;;;;19.78;88.93;101626.28;5073372;28;20080;-81
2023/10/08 14:55:09;;;;;;;27.02;13.68;;;;;;;19.72;89.19;101642.16;5059492;28;20053;-81
2023/10/08 14:57:36;;;;;;;24.60;12.90;;;;;;;19.84;89.21;101632.66;5069355;28;20076;-82
2023/10/08 15:00:05;;;;;;;25.75;14.07;;;;;;;19.86;88.93;101636.75;5085942;28;20048;-80
2023/10/08 15:02:33;;;;;;;25.08;13.05;;;;;;;19.81;88.68;101630.41;5067655;28;20052;-80
2023/10/08 15:05:01;;;;;;;26.40;14.63;;;;;;;19.84;88.30;101627.34;5064902;28;20136;-81
2023/10/08 15:07:27;;;;;;;29.27;13.50;;;;;;;19.91;88.09;101624.72;5063970;28;20049;-81
2023/10/08 15:09:57;;;;;;;25.00;13.45;;;;;;;19.98;88.15;101625.59;5072276;28;20045;-81
2023/10/08 15:12:25;;;;;;;27.65;12.90;;;;;;;20.00;87.65;101624.38;5065401;28;20091;-81
2023/10/08 15:14:51;;;;;;;36.13;13.68;;;;;;;19.90;88.08;101634.53;5066403;28;20057;-81
2023/10/08 15:17:18;;;;;;;28.73;13.43;;;;;;;19.85;88.74;101642.25;5070837;28;20132;-80
2023/10/08 15:19:46;;;;;;;25.05;12.23;;;;;;;19.90;88.23;101621.25;5057507;28;20087;-80
2023/10/08 15:22:14;;;;;;;25.35;12.48;;;;;;;19.97;88.45;101640.72;5056308;28;20041;-80
2023/10/08 15:24:43;;;;;;;25.38;13.80;;;;;;;19.87;88.76;101641.03;5058118;28;20052;-80
2023/10/08 15:27:10;;;;;;;25.30;13.80;;;;;;;19.78;89.34;101654.69;5060539;28;20063;-81
2023/10/08 15:29:37;;;;;;;34.17;13.93;;;;;;;19.80;89.18;101652.66;5067013;28;20059;-80
2023/10/08 15:32:04;;;;;;;27.38;14.98;;;;;;;19.68;89.42;101638.25;5060579;28;20435;-79
2023/10/08 15:34:32;;;;;;;37.28;16.60;;;;;;;19.59;89.88;101647.34;5062701;28;20136;-79
2023/10/08 15:36:59;;;;;;;29.35;14.00;;;;;;;19.65;90.22;101655.38;5061079;28;20080;-79
2023/10/08 15:39:28;;;;;;;28.00;14.00;;;;;;;19.66;89.92;101656.19;5057464;28;20140;-79
2023/10/08 15:41:55;;;;;;;26.45;13.55;;;;;;;19.56;89.89;101640.59;5056375;28;20048;-79
2023/10/08 15:44:22;;;;;;;27.50;13.45;;;;;;;19.63;89.92;101645.97;5065138;28;20077;-79
2023/10/08 15:46:52;;;;;;;31.45;14.57;;;;;;;19.60;90.06;101636.53;5057203;28;20075;-79
2023/10/08 15:49:19;;;;;;;24.45;13.20;;;;;;;19.61;90.23;101635.53;5057842;28;20053;-79
2023/10/08 15:51:46;;;;;;;26.77;13.55;;;;;;;19.71;90.12;101628.06;5056590;28;20055;-80
2023/10/08 15:54:13;;;;;;;22.60;12.70;;;;;;;19.76;89.93;101624.84;5057066;28;20057;-80
2023/10/08 15:56:41;;;;;;;32.33;13.55;;;;;;;19.88;89.38;101623.28;5056826;28;20095;-79
2023/10/08 15:59:07;;;;;;;27.25;15.27;;;;;;;19.67;90.12;101620.66;5056758;28;20052;-80
2023/10/08 16:01:34;;;;;;;22.45;12.85;;;;;;;19.70;90.42;101622.94;5057795;28;20136;-78
2023/10/08 16:04:00;;;;;;;25.83;13.57;;;;;;;19.71;90.21;101614.78;5061721;28;20056;-78
2023/10/08 16:06:27;;;;;;;27.73;14.10;;;;;;;19.61;90.30;101624.09;5052542;28;20480;-78
2023/10/08 16:08:54;;;;;;;26.65;13.82;;;;;;;19.71;90.13;101621.94;5066068;28;20059;-79
2023/10/08 16:11:20;;;;;;;27.77;13.65;;;;;;;19.63;90.35;101611.44;5053313;28;20087;-81
2023/10/08 16:13:48;;;;;;;25.17;13.70;;;;;;;19.59;90.64;101618.16;5066752;28;20073;-80
2023/10/08 16:16:15;;;;;;;25.73;13.88;;;;;;;19.46;91.42;101619.63;5066291;28;20071;-81
2023/10/08 16:18:42;;;;;;;29.10;14.43;;;;;;;19.33;91.37;101616.06;5068985;28;20113;-81
2023/10/08 16:21:11;;;;;;;24.25;12.95;;;;;;;19.33;91.90;101618.72;5061083;28;20127;-82
2023/10/08 16:23:38;;;;;;;21.02;13.15;;;;;;;19.36;92.13;101623.63;5068326;28;20395;-79
2023/10/08 16:26:05;;;;;;;27.98;14.05;;;;;;;19.35;91.99;101620.16;5056973;28;20574;-80
2023/10/08 16:28:32;;;;;;;22.98;12.90;;;;;;;19.31;92.58;101626.03;5063879;28;20507;-80
2023/10/08 16:31:00;;;;;;;24.42;13.68;;;;;;;19.22;92.95;101622.69;5055802;28;20055;-80
2023/10/08 16:33:29;;;;;;;26.80;14.52;;;;;;;19.19;93.01;101617.75;5054831;28;20081;-80
2023/10/08 16:35:56;;;;;;;29.05;13.98;;;;;;;19.15;93.16;101616.47;5054719;28;20061;-80
2023/10/08 16:38:23;;;;;;;23.17;14.43;;;;;;;19.10;93.58;101619.69;5066545;28;20052;-80
2023/10/08 16:40:49;;;;;;;26.48;14.70;;;;;;;19.05;94.08;101626.56;5069178;28;20478;-79
2023/10/08 16:43:16;;;;;;;30.15;14.77;;;;;;;18.95;94.40;101626.88;5060886;28;20100;-80
2023/10/08 16:45:44;;;;;;;29.27;14.32;;;;;;;18.88;95.02;101621.50;5054757;28;20426;-79
2023/10/08 16:48:12;;;;;;;24.65;14.13;;;;;;;18.79;95.73;101616.50;5054610;28;20059;-79
2023/10/08 16:50:39;;;;;;;27.30;15.02;;;;;;;18.71;96.41;101628.03;5057437;28;20116;-79
2023/10/08 16:53:05;;;;;;;22.88;14.00;;;;;;;18.67;96.66;101626.75;5068474;28;20125;-79
2023/10/08 16:55:32;;;;;;;28.83;15.07;;;;;;;18.64;96.94;101623.63;5067232;28;20135;-79
2023/10/08 16:58:00;;;;;;;32.47;15.38;;;;;;;18.67;96.82;101617.97;5062970;28;20049;-80
2023/10/08 17:00:28;;;;;;;28.67;15.13;;;;;;;18.60;97.32;101615.22;5069630;28;20059;-81
2023/10/08 17:02:56;;;;;;;26.95;15.63;;;;;;;18.56;97.66;101621.88;5062394;28;20110;-81
2023/10/08 17:05:24;;;;;;;25.73;14.93;;;;;;;18.53;97.96;101624.91;5061588;28;20053;-80
2023/10/08 17:07:52;;;;;;;29.20;14.68;;;;;;;18.48;98.34;101622.78;5068677;28;20068;-80
2023/10/08 17:10:18;;;;;;;30.70;14.23;;;;;;;18.44;98.76;101628.63;5061667;28;20502;-80
2023/10/08 17:12:45;;;;;;;29.42;14.80;;;;;;;18.38;99.40;101635.53;5061183;28;20128;-81
2023/10/08 17:15:12;;;;;;;24.80;15.45;;;;;;;18.33;99.74;101635.25;5058596;28;20478;-79
2023/10/08 17:17:39;;;;;;;33.55;16.88;;;;;;;18.26;100.00;101636.97;5057036;28;20056;-79
2023/10/08 17:20:09;;;;;;;29.52;16.00;;;;;;;18.17;100.00;101622.97;5065281;28;20072;-79
2023/10/08 17:22:37;;;;;;;24.90;14.80;;;;;;;18.11;100.00;101629.00;5055859;28;20049;-79
2023/10/08 17:25:05;;;;;;;23.48;15.13;;;;;;;18.08;100.00;101629.38;5055533;28;20087;-79
2023/10/08 17:27:34;;;;;;;28.90;14.18;;;;;;;18.03;100.00;101630.91;5056398;28;20144;-79
2023/10/08 17:30:00;;;;;;;27.17;13.93;;;;;;;17.99;100.00;101632.25;5055807;28;20059;-79
2023/10/08 17:32:27;;;;;;;27.23;14.30;;;;;;;17.89;100.00;101621.97;5057736;28;20451;-79
2023/10/08 17:34:54;;;;;;;27.92;14.18;;;;;;;17.76;100.00;101619.09;5060141;28;20098;-80
2023/10/08 17:37:23;;;;;;;23.52;14.35;;;;;;;17.75;100.00;101615.63;5058517;28;20053;-79
2023/10/08 17:39:51;;;;;;;30.15;14.02;;;;;;;17.69;100.00;101602.28;5059170;28;20507;-82
2023/10/08 17:42:18;;;;;;;23.00;13.90;;;;;;;17.69;100.00;101613.69;5059215;28;20044;-81
2023/10/08 17:44:46;;;;;;;22.83;14.48;;;;;;;17.59;100.00;101613.88;5063467;28;20053;-80
2023/10/08 17:47:14;;;;;;;29.38;15.20;;;;;;;17.59;100.00;101618.38;5059178;28;20067;-80
2023/10/08 17:49:40;;;;;;;30.95;14.88;;;;;;;17.52;100.00;101614.78;5058762;28;20103;-80
2023/10/08 17:52:11;;;;;;;25.38;14.45;;;;;;;17.42;100.00;101609.75;5055277;28;20130;-78
2023/10/08 17:54:42;;;;;;;31.65;15.13;;;;;;;17.38;100.00;101610.28;5061078;28;20068;-79
2023/10/08 17:57:13;;;;;;;22.73;14.20;;;;;;;17.33;100.00;101602.88;5056282;28;20049;-79
2023/10/08 17:59:39;;;;;;;24.50;13.55;;;;;;;17.29;100.00;101609.50;5059166;28;20476;-78
2023/10/08 18:02:07;;;;;;;28.08;14.25;;;;;;;17.22;100.00;101600.63;5063703;28;20080;-79
2023/10/08 18:04:34;;;;;;;26.58;13.82;;;;;;;17.14;100.00;101598.84;5057257;28;20487;-79
2023/10/08 18:07:01;;;;;;;26.80;14.65;;;;;;;17.10;100.00;101599.38;5055238;28;20431;-78
2023/10/08 18:09:29;;;;;;;32.58;14.63;;;;;;;17.06;100.00;101596.25;5056068;28;20556;-79
2023/10/08 18:11:57;;;;;;;28.20;15.65;;;;;;;16.96;100.00;101594.84;5054966;28;20523;-79
2023/10/08 18:14:27;;;;;;;28.02;16.13;;;;;;;16.90;100.00;101594.56;5055599;28;20131;-79
2023/10/08 18:16:53;;;;;;;22.35;14.48;;;;;;;16.85;100.00;101604.81;5063342;28;20049;-78
2023/10/08 18:19:24;;;;;;;28.58;14.60;;;;;;;16.80;100.00;101601.88;5054889;28;20088;-79
2023/10/08 18:21:50;;;;;;;31.10;15.95;;;;;;;16.80;100.00;101599.22;5055452;28;20071;-79
2023/10/08 18:24:17;;;;;;;28.15;16.67;;;;;;;16.71;100.00;101594.97;5055327;28;20147;-79
2023/10/08 18:26:47;;;;;;;31.00;17.92;;;;;;;16.67;100.00;101592.84;5054915;28;20080;-79
2023/10/08 18:29:18;;;;;;;31.27;17.17;;;;;;;16.65;100.00;101597.47;5056159;28;20065;-78
2023/10/08 18:31:46;;;;;;;33.42;17.85;;;;;;;16.58;100.00;101599.94;5056945;28;20084;-78
2023/10/08 18:34:17;;;;;;;35.88;18.83;;;;;;;16.50;100.00;101603.47;5063423;28;20136;-79
2023/10/08 18:36:43;;;;;;;34.88;18.40;;;;;;;16.53;100.00;101597.03;5058664;28;20048;-79
2023/10/08 18:39:14;;;;;;;33.90;17.92;;;;;;;16.48;100.00;101602.81;5055137;28;20426;-78
2023/10/08 18:41:40;;;;;;;29.15;18.10;;;;;;;16.49;100.00;101598.38;5055990;28;20044;-79
2023/10/08 18:44:08;;;;;;;31.05;16.95;;;;;;;16.43;100.00;101585.84;5054624;28;20219;-78
2023/10/08 18:46:36;;;;;;;32.80;17.65;;;;;;;16.43;100.00;101596.41;5054897;28;20049;-78
2023/10/08 18:49:06;;;;;;;33.33;18.70;;;;;;;16.36;100.00;101592.78;5054643;28;20057;-79
2023/10/08 18:51:33;;;;;;;34.22;18.85;;;;;;;16.31;100.00;101595.13;5054194;28;20584;-79
2023/10/08 18:53:59;;;;;;;34.13;19.92;;;;;;;16.24;100.00;101592.31;5053521;28;20132;-79
2023/10/08 18:56:27;;;;;;;37.63;20.70;;;;;;;16.14;100.00;101595.16;5053984;28;20104;-79
2023/10/08 18:58:56;;;;;;;36.13;20.88;;;;;;;16.30;100.00;101588.19;5053415;28;20158;-79
2023/10/08 19:01:25;;;;;;;32.13;18.70;;;;;;;16.23;100.00;101570.38;5053395;28;20342;-79
2023/10/08 19:03:52;;;;;;;34.97;20.58;;;;;;;16.16;100.00;101574.69;5053301;28;20153;-79
2023/10/08 19:06:23;;;;;;;31.60;19.20;;;;;;;16.15;100.00;101580.13;5052922;28;20136;-79
2023/10/08 19:08:50;;;;;;;36.58;19.00;;;;;;;16.10;100.00;101582.44;5053994;28;20079;-79
2023/10/08 19:11:18;;;;;;;36.70;21.23;;;;;;;16.07;100.00;101586.25;5063339;28;20049;-79
2023/10/08 19:13:45;;;;;;;35.25;20.73;;;;;;;16.05;100.00;101569.78;5055046;28;20049;-79
2023/10/08 19:16:15;;;;;;;32.22;19.25;;;;;;;16.07;100.00;101577.53;5063045;28;20049;-79
2023/10/08 19:18:44;;;;;;;35.45;20.27;;;;;;;16.04;100.00;101572.59;5059321;28;20502;-79
2023/10/08 19:21:17;;;;;;;38.08;20.10;;;;;;;16.06;100.00;101571.44;5055265;28;20048;-78
2023/10/08 19:23:46;;;;;;;30.88;19.67;;;;;;;16.08;100.00;101571.22;5058658;28;20057;-79
2023/10/08 19:26:16;;;;;;;37.17;19.48;;;;;;;16.03;100.00;101561.22;5052673;28;20145;-79
2023/10/08 19:28:46;;;;;;;32.22;19.65;;;;;;;16.00;100.00;101569.47;5059289;28;20058;-79
2023/10/08 19:31:15;;;;;;;30.58;19.98;;;;;;;15.98;100.00;101571.44;5054662;28;20044;-79
2023/10/08 19:33:42;;;;;;;33.42;20.25;;;;;;;15.91;100.00;101552.81;5065641;28;20064;-79
2023/10/08 19:36:09;;;;;;;31.60;18.60;;;;;;;15.96;100.00;101567.31;5061702;28;20084;-78
2023/10/08 19:38:36;;;;;;;35.90;19.98;;;;;;;15.91;100.00;101567.81;5055110;28;20052;-78
2023/10/08 19:41:04;;;;;;;35.75;19.05;;;;;;;15.86;100.00;101549.84;5060346;28;20051;-79
2023/10/08 19:43:31;;;;;;;29.92;19.75;;;;;;;15.85;100.00;101563.22;5052221;28;20081;-78
2023/10/08 19:45:58;;;;;;;41.65;20.83;;;;;;;15.84;100.00;101548.38;5052680;28;20099;-78
2023/10/08 19:48:24;;;;;;;37.17;20.85;;;;;;;15.76;100.00;101557.13;5058064;28;20048;-79
2023/10/08 19:50:53;;;;;;;34.67;19.95;;;;;;;15.86;100.00;101546.41;5057925;28;20087;-79
2023/10/08 19:53:20;;;;;;;34.42;20.92;;;;;;;15.87;100.00;101555.97;5061440;28;20053;-78
2023/10/08 19:55:50;;;;;;;34.90;20.08;;;;;;;15.81;100.00;101543.44;5059789;28;20075;-78
2023/10/08 20:01:11;;;;;;;41.33;21.33;;;;;;;15.61;100.00;101553.50;5014695;28;20081;-79
2023/10/08 20:03:43;;;;;;;31.92;20.23;;;;;;;15.40;100.00;101538.16;5016126;28;20088;-78
2023/10/08 20:06:40;;;;;;;33.00;20.58;;;;;;;15.52;100.00;101547.41;5018098;28;20120;-77
2023/10/08 20:09:10;;;;;;;38.25;21.00;;;;;;;15.38;100.00;101537.50;5012175;28;20393;-78